McLean, TX (79057)

4:58 AM CDT on July 13, 2014 (GMT -0500)
HADS LEFORS WEATHER STATION TX US USGS (MLEFT2) Elev 2798 ft | 35.44 °N, 100.81 °W | Change Station

Current weather conditions updated 58 minutes ago

Mostly Cloudy
Mostly Cloudy
73 °F
Feels Like 76 °F
N
1
Wind Variable Wind from SW
Gusts 0.0 mph

Today is forecast to be nearly the same temperature as yesterday. Showers and thunderstorms late tonight.

Today
High -- | Low -- °F
--% Chance of Precip.
Yesterday
High -- | Low -- °F
Precip. -- in
6:37 AM 8:58 PM
Full, 99% visible
Pressure 30.18 in
Visibility 10.0 miles
Clouds Scattered Clouds 7500 ft
Mostly Cloudy 9000 ft
Heat Index 76 °F
Dew Point 59 °F
Humidity 63%
Rainfall 0.00 in
Snow Depth Not available.
UV 0 out of 12
Pollen 4.50 out of 12
Air Quality Not available.
Flu Activity Sporadic
METAR KPPA 130935Z AUTO 27008G16KT 10SM SCT075 BKN090 23/13 A3018 RMK AO2 T02260126

More Conditions Fewer Conditions

Pressure 30.18 in
Visibility 10.0 miles
Clouds Scattered Clouds 7500 ft
Mostly Cloudy 9000 ft
Heat Index 76 °F
Dew Point 59 °F
Humidity 63%
Rainfall 0.00 in
Snow Depth Not available.
UV 0 out of 12
Pollen 4.50 out of 12
Air Quality Not available.
Flu Activity Sporadic
METAR KPPA 130935Z AUTO 27008G16KT 10SM SCT075 BKN090 23/13 A3018 RMK AO2 T02260126

More Conditions Fewer Conditions

10-Day Weather Forecast

Almanac

Astronomy

Jul. 13, 2014 Rise Set
Actual Time 6:37 AM CDT 8:58 PM CDT
Civil Twilight 6:08 AM CDT 9:27 PM CDT
Nautical Twilight 5:32 AM CDT 10:03 PM CDT
Astronomical Twilight 4:53 AM CDT 10:42 PM CDT
Moon 9:54 PM CDT 8:05 AM CDT
Length of Visible Light 15h 18m
Length of Day
14h 20m
Tomorrow will be 1m 3s shorter.
Full, 99% of the Moon is Illuminated
Today
Full
Jul 18
Last Quarter
Jul 26
New
Aug 3
First Quarter
Aug 10
Full

Today's Extremes

State Highs State Lows

Community

WunderPhotos

Upload Photos

1,733,142 photos uploaded!

Nearby

Snow Depth

Station Depth Elevation
No new snow has been reported.

Earthquake Activity

City Distance Mag. Time & Date
No recent earthquake activity has been reported nearby.
Minimum magnitude displayed is 2.5.

Coastal Water Temperatures

Place Temperature
No Stations Reporting

Nearby Weather Stations

Station Location Temp. Heat Index Dew Point Humidity Wind Precip. Elev Updated Type
WT_Meso McLean 1E, McLean, TX 71 °F 76 °F 54 °F 57% SW  at  7 mph 0.00 in / hr 2862 ft 3:55 AM CDT MADIS
HADS LEFORS WEATHER STATION TX, Lefors, TX 73 °F 76 °F 59 °F 63% SW  at  1 mph 0.00 in / hr 2798 ft 4:00 AM CDT MADIS

Show More Stations Show Fewer Stations